sensor_id;sensor_type;location;lat;lon;timestamp;temperature;humidity
11656;DHT22;5884;43.618;1.438;2023-06-04T04:45:13;17.60;99.90
11656;DHT22;5884;43.618;1.438;2023-06-04T04:47:41;17.60;99.90
11656;DHT22;5884;43.618;1.438;2023-06-04T04:50:09;17.80;99.90
11656;DHT22;5884;43.618;1.438;2023-06-04T04:52:37;17.80;99.90
11656;DHT22;5884;43.618;1.438;2023-06-04T04:55:05;17.90;99.90
11656;DHT22;5884;43.618;1.438;2023-06-04T04:57:32;17.90;99.90
11656;DHT22;5884;43.618;1.438;2023-06-04T05:00:00;17.90;99.90
11656;DHT22;5884;43.618;1.438;2023-06-04T05:02:28;18.00;99.90
11656;DHT22;5884;43.618;1.438;2023-06-04T05:04:56;18.00;99.90
11656;DHT22;5884;43.618;1.438;2023-06-04T05:07:23;18.10;99.90
11656;DHT22;5884;43.618;1.438;2023-06-04T05:09:50;18.10;99.90
11656;DHT22;5884;43.618;1.438;2023-06-04T05:12:18;18.00;99.90
11656;DHT22;5884;43.618;1.438;2023-06-04T05:14:45;18.10;99.90
11656;DHT22;5884;43.618;1.438;2023-06-04T05:17:14;18.20;99.90
11656;DHT22;5884;43.618;1.438;2023-06-04T05:19:43;18.20;99.90
11656;DHT22;5884;43.618;1.438;2023-06-04T05:22:11;18.20;99.90
11656;DHT22;5884;43.618;1.438;2023-06-04T05:24:41;18.20;99.90
11656;DHT22;5884;43.618;1.438;2023-06-04T05:27:08;18.20;99.90
11656;DHT22;5884;43.618;1.438;2023-06-04T05:29:36;18.20;99.90
11656;DHT22;5884;43.618;1.438;2023-06-04T05:32:03;18.40;99.90
11656;DHT22;5884;43.618;1.438;2023-06-04T05:34:31;18.40;99.90
11656;DHT22;5884;43.618;1.438;2023-06-04T05:36:59;18.50;99.90
11656;DHT22;5884;43.618;1.438;2023-06-04T05:39:29;18.50;99.90
11656;DHT22;5884;43.618;1.438;2023-06-04T05:41:56;18.60;99.90
11656;DHT22;5884;43.618;1.438;2023-06-04T05:44:24;18.60;99.90
11656;DHT22;5884;43.618;1.438;2023-06-04T05:46:51;18.70;99.90
11656;DHT22;5884;43.618;1.438;2023-06-04T05:49:18;18.70;99.90
11656;DHT22;5884;43.618;1.438;2023-06-04T05:51:45;18.60;99.90
11656;DHT22;5884;43.618;1.438;2023-06-04T05:54:14;18.70;99.90
11656;DHT22;5884;43.618;1.438;2023-06-04T05:56:41;18.80;99.90
11656;DHT22;5884;43.618;1.438;2023-06-04T05:59:08;19.00;99.90
11656;DHT22;5884;43.618;1.438;2023-06-04T06:01:36;19.00;99.90
11656;DHT22;5884;43.618;1.438;2023-06-04T06:04:03;19.10;99.90
11656;DHT22;5884;43.618;1.438;2023-06-04T06:06:31;19.20;99.90
11656;DHT22;5884;43.618;1.438;2023-06-04T06:08:58;19.20;99.90
11656;DHT22;5884;43.618;1.438;2023-06-04T06:11:27;19.30;99.90
11656;DHT22;5884;43.618;1.438;2023-06-04T06:13:55;19.40;99.90
11656;DHT22;5884;43.618;1.438;2023-06-04T06:16:22;19.40;99.90
11656;DHT22;5884;43.618;1.438;2023-06-04T06:18:49;19.50;99.90
11656;DHT22;5884;43.618;1.438;2023-06-04T06:21:17;19.60;99.90
11656;DHT22;5884;43.618;1.438;2023-06-04T06:23:44;19.70;99.90
11656;DHT22;5884;43.618;1.438;2023-06-04T06:26:12;19.70;99.90
11656;DHT22;5884;43.618;1.438;2023-06-04T06:28:40;19.70;99.90
11656;DHT22;5884;43.618;1.438;2023-06-04T06:31:08;19.70;99.90
11656;DHT22;5884;43.618;1.438;2023-06-04T06:33:35;19.60;99.90
11656;DHT22;5884;43.618;1.438;2023-06-04T06:36:06;19.70;99.90
11656;DHT22;5884;43.618;1.438;2023-06-04T06:38:33;19.70;99.90
11656;DHT22;5884;43.618;1.438;2023-06-04T06:41:01;19.70;99.90
11656;DHT22;5884;43.618;1.438;2023-06-04T06:43:28;19.60;99.90
11656;DHT22;5884;43.618;1.438;2023-06-04T06:45:58;19.60;99.90
11656;DHT22;5884;43.618;1.438;2023-06-04T06:48:25;19.70;99.90
11656;DHT22;5884;43.618;1.438;2023-06-04T06:50:54;19.60;99.90
11656;DHT22;5884;43.618;1.438;2023-06-04T06:53:21;19.80;99.90
11656;DHT22;5884;43.618;1.438;2023-06-04T06:55:48;19.90;99.90
11656;DHT22;5884;43.618;1.438;2023-06-04T06:58:16;20.00;99.90
11656;DHT22;5884;43.618;1.438;2023-06-04T07:00:43;20.10;99.90
11656;DHT22;5884;43.618;1.438;2023-06-04T07:03:12;20.10;99.90
11656;DHT22;5884;43.618;1.438;2023-06-04T07:05:39;20.20;99.90
11656;DHT22;5884;43.618;1.438;2023-06-04T07:08:06;20.40;99.90
11656;DHT22;5884;43.618;1.438;2023-06-04T07:10:33;20.50;99.90
11656;DHT22;5884;43.618;1.438;2023-06-04T07:13:01;20.40;99.90
11656;DHT22;5884;43.618;1.438;2023-06-04T07:15:28;20.50;99.90
11656;DHT22;5884;43.618;1.438;2023-06-04T07:17:55;20.60;99.90
11656;DHT22;5884;43.618;1.438;2023-06-04T07:20:24;20.60;99.90
11656;DHT22;5884;43.618;1.438;2023-06-04T07:22:51;20.60;99.90
11656;DHT22;5884;43.618;1.438;2023-06-04T07:25:19;20.50;99.90
11656;DHT22;5884;43.618;1.438;2023-06-04T07:27:48;20.40;99.90
11656;DHT22;5884;43.618;1.438;2023-06-04T07:30:16;20.40;99.90
11656;DHT22;5884;43.618;1.438;2023-06-04T07:32:46;20.40;99.90
11656;DHT22;5884;43.618;1.438;2023-06-04T07:35:14;20.40;99.90
11656;DHT22;5884;43.618;1.438;2023-06-04T07:37:43;20.50;99.90
11656;DHT22;5884;43.618;1.438;2023-06-04T07:40:13;20.40;99.90
11656;DHT22;5884;43.618;1.438;2023-06-04T07:42:41;20.40;99.90
11656;DHT22;5884;43.618;1.438;2023-06-04T07:45:09;20.40;99.90
11656;DHT22;5884;43.618;1.438;2023-06-04T07:47:37;20.20;99.90
11656;DHT22;5884;43.618;1.438;2023-06-04T07:50:06;20.30;99.90
11656;DHT22;5884;43.618;1.438;2023-06-04T07:52:34;20.60;99.90
11656;DHT22;5884;43.618;1.438;2023-06-04T07:55:03;20.90;99.90
11656;DHT22;5884;43.618;1.438;2023-06-04T07:57:31;20.90;99.90
11656;DHT22;5884;43.618;1.438;2023-06-04T07:59:58;20.70;99.90
11656;DHT22;5884;43.618;1.438;2023-06-04T08:02:28;20.70;99.90
11656;DHT22;5884;43.618;1.438;2023-06-04T08:04:55;20.70;99.90
11656;DHT22;5884;43.618;1.438;2023-06-04T08:07:22;20.70;99.90
11656;DHT22;5884;43.618;1.438;2023-06-04T08:09:50;21.00;99.90
11656;DHT22;5884;43.618;1.438;2023-06-04T08:12:19;21.30;99.90
11656;DHT22;5884;43.618;1.438;2023-06-04T08:14:46;21.40;99.90
11656;DHT22;5884;43.618;1.438;2023-06-04T08:17:15;21.60;99.90
11656;DHT22;5884;43.618;1.438;2023-06-04T08:19:43;21.50;99.90
11656;DHT22;5884;43.618;1.438;2023-06-04T08:22:10;21.70;99.90
11656;DHT22;5884;43.618;1.438;2023-06-04T08:24:38;22.00;99.90
11656;DHT22;5884;43.618;1.438;2023-06-04T08:27:05;22.20;99.90
11656;DHT22;5884;43.618;1.438;2023-06-04T08:29:35;22.30;99.90
11656;DHT22;5884;43.618;1.438;2023-06-04T08:32:03;22.30;99.90
11656;DHT22;5884;43.618;1.438;2023-06-04T08:34:31;22.20;99.90
11656;DHT22;5884;43.618;1.438;2023-06-04T08:36:58;22.20;99.90
11656;DHT22;5884;43.618;1.438;2023-06-04T08:39:25;22.10;99.90
11656;DHT22;5884;43.618;1.438;2023-06-04T08:41:55;22.10;99.90
11656;DHT22;5884;43.618;1.438;2023-06-04T08:44:27;22.20;99.90
11656;DHT22;5884;43.618;1.438;2023-06-04T08:47:02;22.10;99.90
11656;DHT22;5884;43.618;1.438;2023-06-04T08:49:33;22.10;99.90
11656;DHT22;5884;43.618;1.438;2023-06-04T08:52:02;22.00;99.90
11656;DHT22;5884;43.618;1.438;2023-06-04T08:54:31;21.90;99.90
11656;DHT22;5884;43.618;1.438;2023-06-04T08:57:00;21.90;99.90
11656;DHT22;5884;43.618;1.438;2023-06-04T08:59:28;22.10;99.90
11656;DHT22;5884;43.618;1.438;2023-06-04T09:01:57;22.30;99.90
11656;DHT22;5884;43.618;1.438;2023-06-04T09:04:25;22.50;99.90
11656;DHT22;5884;43.618;1.438;2023-06-04T09:06:53;22.60;99.90
11656;DHT22;5884;43.618;1.438;2023-06-04T09:09:22;22.60;99.90
11656;DHT22;5884;43.618;1.438;2023-06-04T09:11:52;22.60;99.90
11656;DHT22;5884;43.618;1.438;2023-06-04T09:14:20;22.60;99.90
11656;DHT22;5884;43.618;1.438;2023-06-04T09:16:49;22.70;99.90
11656;DHT22;5884;43.618;1.438;2023-06-04T09:19:19;23.10;99.90
11656;DHT22;5884;43.618;1.438;2023-06-04T09:21:51;23.20;99.90
11656;DHT22;5884;43.618;1.438;2023-06-04T09:24:19;23.10;99.90
11656;DHT22;5884;43.618;1.438;2023-06-04T09:26:47;23.10;99.90
11656;DHT22;5884;43.618;1.438;2023-06-04T09:29:15;23.30;99.90
11656;DHT22;5884;43.618;1.438;2023-06-04T09:31:45;23.30;99.90
11656;DHT22;5884;43.618;1.438;2023-06-04T09:34:12;23.40;99.90
11656;DHT22;5884;43.618;1.438;2023-06-04T09:36:41;23.30;99.90
11656;DHT22;5884;43.618;1.438;2023-06-04T09:39:16;23.60;99.90
11656;DHT22;5884;43.618;1.438;2023-06-04T09:41:43;23.90;99.90
11656;DHT22;5884;43.618;1.438;2023-06-04T09:44:11;24.00;99.90
11656;DHT22;5884;43.618;1.438;2023-06-04T09:46:38;24.00;99.90
11656;DHT22;5884;43.618;1.438;2023-06-04T09:49:06;23.70;99.90
11656;DHT22;5884;43.618;1.438;2023-06-04T09:51:33;23.30;99.90
11656;DHT22;5884;43.618;1.438;2023-06-04T09:54:03;23.40;99.90
11656;DHT22;5884;43.618;1.438;2023-06-04T09:56:39;23.60;99.90
11656;DHT22;5884;43.618;1.438;2023-06-04T09:59:08;23.70;99.90
11656;DHT22;5884;43.618;1.438;2023-06-04T10:01:39;24.00;99.90
11656;DHT22;5884;43.618;1.438;2023-06-04T10:04:08;24.20;99.90
11656;DHT22;5884;43.618;1.438;2023-06-04T10:06:39;24.30;99.90
11656;DHT22;5884;43.618;1.438;2023-06-04T10:09:08;24.50;99.90
11656;DHT22;5884;43.618;1.438;2023-06-04T10:11:38;24.80;99.90
11656;DHT22;5884;43.618;1.438;2023-06-04T10:14:11;25.00;99.90
11656;DHT22;5884;43.618;1.438;2023-06-04T10:16:44;25.00;99.90
11656;DHT22;5884;43.618;1.438;2023-06-04T10:19:12;25.10;99.90
11656;DHT22;5884;43.618;1.438;2023-06-04T10:21:40;25.10;99.90
11656;DHT22;5884;43.618;1.438;2023-06-04T10:24:09;25.20;99.90
11656;DHT22;5884;43.618;1.438;2023-06-04T10:26:37;25.20;99.90
11656;DHT22;5884;43.618;1.438;2023-06-04T10:29:05;25.40;99.90
11656;DHT22;5884;43.618;1.438;2023-06-04T10:31:33;25.20;99.90
11656;DHT22;5884;43.618;1.438;2023-06-04T10:34:00;25.00;99.90
11656;DHT22;5884;43.618;1.438;2023-06-04T10:36:28;25.00;99.90
11656;DHT22;5884;43.618;1.438;2023-06-04T10:38:56;25.00;99.90
11656;DHT22;5884;43.618;1.438;2023-06-04T10:41:24;25.20;99.90
11656;DHT22;5884;43.618;1.438;2023-06-04T10:44:01;25.20;99.90
11656;DHT22;5884;43.618;1.438;2023-06-04T10:46:38;25.10;99.90
11656;DHT22;5884;43.618;1.438;2023-06-04T10:49:07;25.10;99.90
11656;DHT22;5884;43.618;1.438;2023-06-04T10:51:35;25.30;99.90
11656;DHT22;5884;43.618;1.438;2023-06-04T10:54:03;25.40;99.90
11656;DHT22;5884;43.618;1.438;2023-06-04T10:56:34;25.10;99.90
11656;DHT22;5884;43.618;1.438;2023-06-04T10:59:13;24.90;99.90
11656;DHT22;5884;43.618;1.438;2023-06-04T11:01:41;25.10;99.90
11656;DHT22;5884;43.618;1.438;2023-06-04T11:04:18;25.30;99.90
11656;DHT22;5884;43.618;1.438;2023-06-04T11:06:47;25.00;99.90
11656;DHT22;5884;43.618;1.438;2023-06-04T11:09:15;25.20;99.90
11656;DHT22;5884;43.618;1.438;2023-06-04T11:11:56;25.30;99.90
11656;DHT22;5884;43.618;1.438;2023-06-04T11:14:24;25.30;99.90
11656;DHT22;5884;43.618;1.438;2023-06-04T11:16:51;24.70;99.90
11656;DHT22;5884;43.618;1.438;2023-06-04T11:19:18;24.50;99.90
11656;DHT22;5884;43.618;1.438;2023-06-04T11:21:46;24.50;99.90
11656;DHT22;5884;43.618;1.438;2023-06-04T11:24:13;25.00;99.90
11656;DHT22;5884;43.618;1.438;2023-06-04T11:26:40;25.40;99.90
11656;DHT22;5884;43.618;1.438;2023-06-04T11:29:11;25.50;99.90
11656;DHT22;5884;43.618;1.438;2023-06-04T11:31:42;25.50;99.90
11656;DHT22;5884;43.618;1.438;2023-06-04T11:34:10;25.70;99.90
11656;DHT22;5884;43.618;1.438;2023-06-04T11:36:39;26.00;99.90
11656;DHT22;5884;43.618;1.438;2023-06-04T11:39:06;26.00;99.90
11656;DHT22;5884;43.618;1.438;2023-06-04T11:41:35;26.10;99.90
11656;DHT22;5884;43.618;1.438;2023-06-04T11:44:03;26.10;99.90
11656;DHT22;5884;43.618;1.438;2023-06-04T11:46:32;26.30;99.90
11656;DHT22;5884;43.618;1.438;2023-06-04T11:49:00;26.40;99.90
11656;DHT22;5884;43.618;1.438;2023-06-04T11:51:29;26.50;99.90
11656;DHT22;5884;43.618;1.438;2023-06-04T11:53:57;26.60;99.90
11656;DHT22;5884;43.618;1.438;2023-06-04T11:56:25;26.60;99.90
11656;DHT22;5884;43.618;1.438;2023-06-04T11:58:54;26.80;99.90
11656;DHT22;5884;43.618;1.438;2023-06-04T12:01:22;26.90;99.90
11656;DHT22;5884;43.618;1.438;2023-06-04T12:03:55;26.80;99.90
11656;DHT22;5884;43.618;1.438;2023-06-04T12:06:22;26.70;99.90
11656;DHT22;5884;43.618;1.438;2023-06-04T12:08:51;26.40;99.90
11656;DHT22;5884;43.618;1.438;2023-06-04T12:11:25;25.90;99.90
11656;DHT22;5884;43.618;1.438;2023-06-04T12:13:55;26.00;99.90
11656;DHT22;5884;43.618;1.438;2023-06-04T12:16:22;26.00;99.90
11656;DHT22;5884;43.618;1.438;2023-06-04T12:18:49;25.70;99.90
11656;DHT22;5884;43.618;1.438;2023-06-04T12:21:21;25.50;99.90
11656;DHT22;5884;43.618;1.438;2023-06-04T12:23:53;25.30;99.90
11656;DHT22;5884;43.618;1.438;2023-06-04T12:26:22;25.10;99.90
11656;DHT22;5884;43.618;1.438;2023-06-04T12:28:59;25.00;99.90
11656;DHT22;5884;43.618;1.438;2023-06-04T12:31:27;25.40;99.90
11656;DHT22;5884;43.618;1.438;2023-06-04T12:33:58;25.70;99.90
11656;DHT22;5884;43.618;1.438;2023-06-04T12:36:28;25.80;99.90
11656;DHT22;5884;43.618;1.438;2023-06-04T12:38:58;25.60;99.90
11656;DHT22;5884;43.618;1.438;2023-06-04T12:41:26;25.50;99.90
11656;DHT22;5884;43.618;1.438;2023-06-04T12:43:54;25.50;99.90
11656;DHT22;5884;43.618;1.438;2023-06-04T12:46:22;25.40;99.90
11656;DHT22;5884;43.618;1.438;2023-06-04T12:48:51;25.30;99.90
11656;DHT22;5884;43.618;1.438;2023-06-04T12:51:20;25.50;99.90
11656;DHT22;5884;43.618;1.438;2023-06-04T12:53:49;25.90;99.90
11656;DHT22;5884;43.618;1.438;2023-06-04T12:56:16;26.20;99.90
11656;DHT22;5884;43.618;1.438;2023-06-04T12:58:44;26.50;99.90
11656;DHT22;5884;43.618;1.438;2023-06-04T13:01:11;26.90;99.90
11656;DHT22;5884;43.618;1.438;2023-06-04T13:03:40;27.00;99.90
11656;DHT22;5884;43.618;1.438;2023-06-04T13:06:07;26.90;99.90
11656;DHT22;5884;43.618;1.438;2023-06-04T13:08:35;26.90;99.90
11656;DHT22;5884;43.618;1.438;2023-06-04T13:11:06;26.50;99.90
11656;DHT22;5884;43.618;1.438;2023-06-04T13:13:33;26.10;99.90
11656;DHT22;5884;43.618;1.438;2023-06-04T13:16:01;25.80;99.90
11656;DHT22;5884;43.618;1.438;2023-06-04T13:18:28;25.60;99.90
11656;DHT22;5884;43.618;1.438;2023-06-04T13:20:56;25.40;99.90
11656;DHT22;5884;43.618;1.438;2023-06-04T13:23:23;25.30;99.90
11656;DHT22;5884;43.618;1.438;2023-06-04T13:25:50;25.30;99.90
11656;DHT22;5884;43.618;1.438;2023-06-04T13:28:19;25.30;99.90
11656;DHT22;5884;43.618;1.438;2023-06-04T13:30:46;25.60;99.90
11656;DHT22;5884;43.618;1.438;2023-06-04T13:33:13;25.50;99.90
11656;DHT22;5884;43.618;1.438;2023-06-04T13:35:41;25.30;99.90
11656;DHT22;5884;43.618;1.438;2023-06-04T13:38:10;25.20;99.90
11656;DHT22;5884;43.618;1.438;2023-06-04T13:40:38;25.30;99.90
11656;DHT22;5884;43.618;1.438;2023-06-04T13:43:05;25.60;99.90
11656;DHT22;5884;43.618;1.438;2023-06-04T13:45:35;26.20;99.90
11656;DHT22;5884;43.618;1.438;2023-06-04T13:48:03;26.70;99.90
11656;DHT22;5884;43.618;1.438;2023-06-04T13:50:33;27.00;99.90
11656;DHT22;5884;43.618;1.438;2023-06-04T13:53:00;27.00;99.90
11656;DHT22;5884;43.618;1.438;2023-06-04T13:55:28;27.10;99.90
11656;DHT22;5884;43.618;1.438;2023-06-04T13:57:56;27.10;99.90
11656;DHT22;5884;43.618;1.438;2023-06-04T14:00:23;27.10;99.90
11656;DHT22;5884;43.618;1.438;2023-06-04T14:02:52;27.10;99.90
11656;DHT22;5884;43.618;1.438;2023-06-04T14:05:20;27.20;99.90
11656;DHT22;5884;43.618;1.438;2023-06-04T14:07:49;27.30;99.90
11656;DHT22;5884;43.618;1.438;2023-06-04T14:10:16;27.40;99.90
11656;DHT22;5884;43.618;1.438;2023-06-04T14:12:43;27.20;99.90
11656;DHT22;5884;43.618;1.438;2023-06-04T14:15:11;27.20;99.90
11656;DHT22;5884;43.618;1.438;2023-06-04T14:17:38;27.10;99.90
11656;DHT22;5884;43.618;1.438;2023-06-04T14:20:08;26.90;99.90
11656;DHT22;5884;43.618;1.438;2023-06-04T14:22:36;26.80;99.90
11656;DHT22;5884;43.618;1.438;2023-06-04T14:25:05;26.90;99.90
11656;DHT22;5884;43.618;1.438;2023-06-04T14:27:33;27.20;99.90
11656;DHT22;5884;43.618;1.438;2023-06-04T14:30:01;27.30;99.90
11656;DHT22;5884;43.618;1.438;2023-06-04T14:32:29;27.30;99.90
11656;DHT22;5884;43.618;1.438;2023-06-04T14:34:56;27.20;99.90
11656;DHT22;5884;43.618;1.438;2023-06-04T14:37:25;27.30;99.90
11656;DHT22;5884;43.618;1.438;2023-06-04T14:39:52;27.30;99.90
11656;DHT22;5884;43.618;1.438;2023-06-04T14:42:19;27.50;99.90
11656;DHT22;5884;43.618;1.438;2023-06-04T14:44:46;27.50;99.90
11656;DHT22;5884;43.618;1.438;2023-06-04T14:47:14;27.20;99.90
11656;DHT22;5884;43.618;1.438;2023-06-04T14:49:41;27.20;99.90
11656;DHT22;5884;43.618;1.438;2023-06-04T14:52:08;27.00;99.90
11656;DHT22;5884;43.618;1.438;2023-06-04T14:54:37;26.60;99.90
11656;DHT22;5884;43.618;1.438;2023-06-04T14:57:05;26.80;99.90
11656;DHT22;5884;43.618;1.438;2023-06-04T14:59:32;27.10;99.90
11656;DHT22;5884;43.618;1.438;2023-06-04T15:02:00;27.30;99.90
11656;DHT22;5884;43.618;1.438;2023-06-04T15:04:28;27.30;99.90
11656;DHT22;5884;43.618;1.438;2023-06-04T15:06:55;27.40;99.90
11656;DHT22;5884;43.618;1.438;2023-06-04T15:09:22;27.50;99.90
11656;DHT22;5884;43.618;1.438;2023-06-04T15:11:51;27.70;99.90
11656;DHT22;5884;43.618;1.438;2023-06-04T15:14:18;27.80;99.90
11656;DHT22;5884;43.618;1.438;2023-06-04T15:16:45;27.90;99.90
11656;DHT22;5884;43.618;1.438;2023-06-04T15:19:13;27.90;99.90
11656;DHT22;5884;43.618;1.438;2023-06-04T15:21:40;28.00;99.90
11656;DHT22;5884;43.618;1.438;2023-06-04T15:24:09;27.90;99.90
11656;DHT22;5884;43.618;1.438;2023-06-04T15:26:36;27.60;99.90
11656;DHT22;5884;43.618;1.438;2023-06-04T15:29:05;27.30;99.90
11656;DHT22;5884;43.618;1.438;2023-06-04T15:31:33;27.10;99.90
11656;DHT22;5884;43.618;1.438;2023-06-04T15:34:00;27.10;99.90
11656;DHT22;5884;43.618;1.438;2023-06-04T15:36:27;26.70;99.90
11656;DHT22;5884;43.618;1.438;2023-06-04T15:38:55;26.70;99.90
11656;DHT22;5884;43.618;1.438;2023-06-04T15:41:22;26.50;99.90
11656;DHT22;5884;43.618;1.438;2023-06-04T15:43:50;26.40;99.90
11656;DHT22;5884;43.618;1.438;2023-06-04T15:46:20;26.40;99.90
11656;DHT22;5884;43.618;1.438;2023-06-04T15:48:49;26.40;99.90
11656;DHT22;5884;43.618;1.438;2023-06-04T15:51:17;26.40;99.90
11656;DHT22;5884;43.618;1.438;2023-06-04T15:53:44;26.30;99.90
11656;DHT22;5884;43.618;1.438;2023-06-04T15:56:11;26.50;99.90
11656;DHT22;5884;43.618;1.438;2023-06-04T15:58:41;26.80;99.90
11656;DHT22;5884;43.618;1.438;2023-06-04T16:01:09;27.00;99.90
11656;DHT22;5884;43.618;1.438;2023-06-04T16:03:37;27.30;99.90
11656;DHT22;5884;43.618;1.438;2023-06-04T16:06:04;27.40;99.90
11656;DHT22;5884;43.618;1.438;2023-06-04T16:08:32;27.10;99.90
11656;DHT22;5884;43.618;1.438;2023-06-04T16:10:59;27.30;99.90
11656;DHT22;5884;43.618;1.438;2023-06-04T16:13:26;27.30;99.90
11656;DHT22;5884;43.618;1.438;2023-06-04T16:15:54;27.10;99.90
11656;DHT22;5884;43.618;1.438;2023-06-04T16:18:22;27.10;99.90
11656;DHT22;5884;43.618;1.438;2023-06-04T16:20:50;27.20;99.90
11656;DHT22;5884;43.618;1.438;2023-06-04T16:23:17;27.20;99.90
11656;DHT22;5884;43.618;1.438;2023-06-04T16:25:45;27.30;99.90
11656;DHT22;5884;43.618;1.438;2023-06-04T16:28:12;27.20;99.90
11656;DHT22;5884;43.618;1.438;2023-06-04T16:30:40;27.10;99.90
11656;DHT22;5884;43.618;1.438;2023-06-04T16:33:07;26.90;99.90
11656;DHT22;5884;43.618;1.438;2023-06-04T16:35:34;27.00;99.90
11656;DHT22;5884;43.618;1.438;2023-06-04T16:38:03;27.00;99.90
11656;DHT22;5884;43.618;1.438;2023-06-04T16:40:30;27.00;99.90
11656;DHT22;5884;43.618;1.438;2023-06-04T16:42:58;26.80;99.90
11656;DHT22;5884;43.618;1.438;2023-06-04T16:45:25;26.90;99.90
11656;DHT22;5884;43.618;1.438;2023-06-04T16:47:53;26.80;99.90
11656;DHT22;5884;43.618;1.438;2023-06-04T16:50:20;26.60;99.90
11656;DHT22;5884;43.618;1.438;2023-06-04T16:52:47;26.40;99.90
11656;DHT22;5884;43.618;1.438;2023-06-04T16:55:16;26.20;99.90
11656;DHT22;5884;43.618;1.438;2023-06-04T16:57:44;26.20;99.90
11656;DHT22;5884;43.618;1.438;2023-06-04T17:00:11;26.10;99.90
11656;DHT22;5884;43.618;1.438;2023-06-04T17:02:39;26.10;99.90
11656;DHT22;5884;43.618;1.438;2023-06-04T17:05:07;26.30;99.90
11656;DHT22;5884;43.618;1.438;2023-06-04T17:07:34;26.50;99.90
11656;DHT22;5884;43.618;1.438;2023-06-04T17:10:03;26.80;99.90
11656;DHT22;5884;43.618;1.438;2023-06-04T17:12:32;26.90;99.90
11656;DHT22;5884;43.618;1.438;2023-06-04T17:15:02;27.00;99.90
11656;DHT22;5884;43.618;1.438;2023-06-04T17:17:30;27.00;99.90
11656;DHT22;5884;43.618;1.438;2023-06-04T17:19:57;26.70;99.90
11656;DHT22;5884;43.618;1.438;2023-06-04T17:22:24;26.50;99.90
11656;DHT22;5884;43.618;1.438;2023-06-04T17:24:52;26.40;99.90
11656;DHT22;5884;43.618;1.438;2023-06-04T17:27:19;26.30;99.90
11656;DHT22;5884;43.618;1.438;2023-06-04T17:29:48;26.20;99.90
11656;DHT22;5884;43.618;1.438;2023-06-04T17:32:15;26.20;99.90
11656;DHT22;5884;43.618;1.438;2023-06-04T17:34:43;26.30;99.90
11656;DHT22;5884;43.618;1.438;2023-06-04T17:37:10;26.50;99.90
11656;DHT22;5884;43.618;1.438;2023-06-04T17:39:37;26.60;99.90
11656;DHT22;5884;43.618;1.438;2023-06-04T17:42:05;26.40;99.90
11656;DHT22;5884;43.618;1.438;2023-06-04T17:44:33;26.20;99.90
11656;DHT22;5884;43.618;1.438;2023-06-04T17:47:01;26.20;99.90
11656;DHT22;5884;43.618;1.438;2023-06-04T17:49:31;26.10;99.90
11656;DHT22;5884;43.618;1.438;2023-06-04T17:51:58;25.90;99.90
11656;DHT22;5884;43.618;1.438;2023-06-04T17:54:26;25.80;99.90
11656;DHT22;5884;43.618;1.438;2023-06-04T17:56:53;25.60;99.90
11656;DHT22;5884;43.618;1.438;2023-06-04T17:59:20;25.60;99.90
11656;DHT22;5884;43.618;1.438;2023-06-04T18:01:47;25.50;99.90
11656;DHT22;5884;43.618;1.438;2023-06-04T18:04:17;25.50;99.90
11656;DHT22;5884;43.618;1.438;2023-06-04T18:06:45;25.70;99.90
11656;DHT22;5884;43.618;1.438;2023-06-04T18:09:12;25.70;99.90
11656;DHT22;5884;43.618;1.438;2023-06-04T18:11:39;25.50;99.90
11656;DHT22;5884;43.618;1.438;2023-06-04T18:14:07;25.40;99.90
11656;DHT22;5884;43.618;1.438;2023-06-04T18:16:34;25.30;99.90
11656;DHT22;5884;43.618;1.438;2023-06-04T18:19:01;25.10;99.90
11656;DHT22;5884;43.618;1.438;2023-06-04T18:21:30;25.00;99.90
11656;DHT22;5884;43.618;1.438;2023-06-04T18:23:57;24.90;99.90
11656;DHT22;5884;43.618;1.438;2023-06-04T18:26:24;24.80;99.90
11656;DHT22;5884;43.618;1.438;2023-06-04T18:28:52;24.70;99.90
11656;DHT22;5884;43.618;1.438;2023-06-04T18:31:19;24.60;99.90
11656;DHT22;5884;43.618;1.438;2023-06-04T18:33:50;24.50;99.90
11656;DHT22;5884;43.618;1.438;2023-06-04T18:36:18;24.40;99.90
11656;DHT22;5884;43.618;1.438;2023-06-04T18:38:47;24.30;99.90
11656;DHT22;5884;43.618;1.438;2023-06-04T18:41:14;24.30;99.90
11656;DHT22;5884;43.618;1.438;2023-06-04T18:43:41;24.20;99.90
11656;DHT22;5884;43.618;1.438;2023-06-04T18:46:09;24.10;99.90
11656;DHT22;5884;43.618;1.438;2023-06-04T18:48:36;24.00;99.90
11656;DHT22;5884;43.618;1.438;2023-06-04T18:51:03;24.00;99.90
11656;DHT22;5884;43.618;1.438;2023-06-04T18:53:30;24.00;99.90
11656;DHT22;5884;43.618;1.438;2023-06-04T18:56:01;23.90;99.90
11656;DHT22;5884;43.618;1.438;2023-06-04T18:58:29;23.90;99.90
11656;DHT22;5884;43.618;1.438;2023-06-04T19:00:56;23.90;99.90
11656;DHT22;5884;43.618;1.438;2023-06-04T19:03:24;23.90;99.90
11656;DHT22;5884;43.618;1.438;2023-06-04T19:05:51;23.90;99.90
11656;DHT22;5884;43.618;1.438;2023-06-04T19:08:18;23.80;99.90
11656;DHT22;5884;43.618;1.438;2023-06-04T19:10:46;23.80;99.90
11656;DHT22;5884;43.618;1.438;2023-06-04T19:13:18;23.80;99.90
11656;DHT22;5884;43.618;1.438;2023-06-04T19:15:45;23.80;99.90
11656;DHT22;5884;43.618;1.438;2023-06-04T19:18:15;23.70;99.90
11656;DHT22;5884;43.618;1.438;2023-06-04T19:20:42;23.70;99.90
11656;DHT22;5884;43.618;1.438;2023-06-04T19:23:09;23.70;99.90
11656;DHT22;5884;43.618;1.438;2023-06-04T19:25:37;23.70;99.90
11656;DHT22;5884;43.618;1.438;2023-06-04T19:28:05;23.60;99.90
11656;DHT22;5884;43.618;1.438;2023-06-04T19:30:33;23.60;99.90
11656;DHT22;5884;43.618;1.438;2023-06-04T19:33:01;23.50;99.90
11656;DHT22;5884;43.618;1.438;2023-06-04T19:35:28;23.50;99.90
11656;DHT22;5884;43.618;1.438;2023-06-04T19:37:55;23.40;99.90
11656;DHT22;5884;43.618;1.438;2023-06-04T19:40:22;23.30;99.90
11656;DHT22;5884;43.618;1.438;2023-06-04T19:42:50;23.30;99.90
11656;DHT22;5884;43.618;1.438;2023-06-04T19:45:17;23.30;99.90
11656;DHT22;5884;43.618;1.438;2023-06-04T19:47:46;23.30;99.90
11656;DHT22;5884;43.618;1.438;2023-06-04T19:50:13;23.40;99.90
11656;DHT22;5884;43.618;1.438;2023-06-04T19:52:40;23.30;99.90
11656;DHT22;5884;43.618;1.438;2023-06-04T19:55:08;23.30;99.90
11656;DHT22;5884;43.618;1.438;2023-06-04T19:57:36;23.30;99.90
11656;DHT22;5884;43.618;1.438;2023-06-04T20:00:04;23.30;99.90
11656;DHT22;5884;43.618;1.438;2023-06-04T20:02:33;23.30;99.90
11656;DHT22;5884;43.618;1.438;2023-06-04T20:05:02;23.30;99.90
11656;DHT22;5884;43.618;1.438;2023-06-04T20:07:30;23.20;99.90
11656;DHT22;5884;43.618;1.438;2023-06-04T20:10:00;23.20;99.90
11656;DHT22;5884;43.618;1.438;2023-06-04T20:12:27;23.10;99.90
11656;DHT22;5884;43.618;1.438;2023-06-04T20:14:55;23.10;99.90
11656;DHT22;5884;43.618;1.438;2023-06-04T20:17:22;23.10;99.90
11656;DHT22;5884;43.618;1.438;2023-06-04T20:19:49;23.00;99.90
11656;DHT22;5884;43.618;1.438;2023-06-04T20:22:18;23.00;99.90
11656;DHT22;5884;43.618;1.438;2023-06-04T20:24:45;22.90;99.90
11656;DHT22;5884;43.618;1.438;2023-06-04T20:27:12;22.90;99.90
11656;DHT22;5884;43.618;1.438;2023-06-04T20:29:42;22.90;99.90
11656;DHT22;5884;43.618;1.438;2023-06-04T20:32:10;22.90;99.90
11656;DHT22;5884;43.618;1.438;2023-06-04T20:34:37;22.80;99.90